sensor_id;sensor_type;location;lat;lon;timestamp;pressure;altitude;pressure_sealevel;temperature;humidity
60437;BME280;46289;51.992;4.498;2023-08-01T00:00:37;99979.66;;;15.54;100.00
60437;BME280;46289;51.992;4.498;2023-08-01T00:02:46;99976.53;;;15.60;100.00
60437;BME280;46289;51.992;4.498;2023-08-01T00:04:51;99977.78;;;15.67;100.00
60437;BME280;46289;51.992;4.498;2023-08-01T00:06:58;99977.13;;;15.64;100.00
60437;BME280;46289;51.992;4.498;2023-08-01T00:09:05;99970.75;;;15.66;100.00
60437;BME280;46289;51.992;4.498;2023-08-01T00:11:11;99968.81;;;15.57;100.00
60437;BME280;46289;51.992;4.498;2023-08-01T00:13:17;99968.31;;;15.52;100.00
60437;BME280;46289;51.992;4.498;2023-08-01T00:15:19;99969.56;;;15.59;100.00
60437;BME280;46289;51.992;4.498;2023-08-01T00:17:25;99970.25;;;15.50;100.00
60437;BME280;46289;51.992;4.498;2023-08-01T00:19:36;99951.22;;;15.45;100.00
60437;BME280;46289;51.992;4.498;2023-08-01T00:21:59;99950.25;;;15.46;100.00
60437;BME280;46289;51.992;4.498;2023-08-01T00:24:31;99945.31;;;15.41;100.00
60437;BME280;46289;51.992;4.498;2023-08-01T00:27:05;99944.66;;;15.37;100.00
60437;BME280;46289;51.992;4.498;2023-08-01T00:29:33;99940.63;;;15.45;100.00
60437;BME280;46289;51.992;4.498;2023-08-01T00:31:44;99930.25;;;15.42;100.00
60437;BME280;46289;51.992;4.498;2023-08-01T00:34:13;99930.72;;;15.35;100.00
60437;BME280;46289;51.992;4.498;2023-08-01T00:36:46;99920.25;;;15.34;100.00
60437;BME280;46289;51.992;4.498;2023-08-01T00:39:11;99911.06;;;15.27;100.00
60437;BME280;46289;51.992;4.498;2023-08-01T00:41:46;99915.03;;;15.21;100.00
60437;BME280;46289;51.992;4.498;2023-08-01T00:44:24;99919.00;;;15.27;100.00
60437;BME280;46289;51.992;4.498;2023-08-01T00:47:13;99919.88;;;15.27;100.00
60437;BME280;46289;51.992;4.498;2023-08-01T00:49:35;99920.72;;;15.28;100.00
60437;BME280;46289;51.992;4.498;2023-08-01T00:51:55;99919.88;;;15.27;100.00
60437;BME280;46289;51.992;4.498;2023-08-01T00:54:10;99915.53;;;15.26;100.00
60437;BME280;46289;51.992;4.498;2023-08-01T00:56:39;99919.75;;;15.29;100.00
60437;BME280;46289;51.992;4.498;2023-08-01T00:59:02;99919.31;;;15.35;100.00
60437;BME280;46289;51.992;4.498;2023-08-01T01:01:25;99914.00;;;15.35;100.00
60437;BME280;46289;51.992;4.498;2023-08-01T01:03:44;99916.19;;;15.41;100.00
60437;BME280;46289;51.992;4.498;2023-08-01T01:06:14;99914.97;;;15.45;100.00
60437;BME280;46289;51.992;4.498;2023-08-01T01:08:40;99917.19;;;15.51;100.00
60437;BME280;46289;51.992;4.498;2023-08-01T01:11:34;99895.59;;;15.45;100.00
60437;BME280;46289;51.992;4.498;2023-08-01T01:14:03;99910.31;;;15.49;100.00
60437;BME280;46289;51.992;4.498;2023-08-01T01:16:47;99907.44;;;15.52;100.00
60437;BME280;46289;51.992;4.498;2023-08-01T01:19:00;99899.25;;;15.55;100.00
60437;BME280;46289;51.992;4.498;2023-08-01T01:21:22;99902.38;;;15.60;100.00
60437;BME280;46289;51.992;4.498;2023-08-01T01:23:54;99892.97;;;15.56;100.00
60437;BME280;46289;51.992;4.498;2023-08-01T01:26:08;99896.34;;;15.58;100.00
60437;BME280;46289;51.992;4.498;2023-08-01T01:28:28;99895.63;;;15.56;100.00
60437;BME280;46289;51.992;4.498;2023-08-01T01:30:49;99899.47;;;15.52;100.00
60437;BME280;46289;51.992;4.498;2023-08-01T01:33:08;99915.38;;;15.63;100.00
60437;BME280;46289;51.992;4.498;2023-08-01T01:35:46;99897.69;;;15.64;100.00
60437;BME280;46289;51.992;4.498;2023-08-01T01:38:12;99898.75;;;15.61;100.00
60437;BME280;46289;51.992;4.498;2023-08-01T01:40:38;99896.84;;;15.63;100.00
60437;BME280;46289;51.992;4.498;2023-08-01T01:43:14;99890.13;;;15.59;100.00
60437;BME280;46289;51.992;4.498;2023-08-01T01:45:37;99887.97;;;15.64;100.00
60437;BME280;46289;51.992;4.498;2023-08-01T01:47:57;99890.91;;;15.72;100.00
60437;BME280;46289;51.992;4.498;2023-08-01T01:50:42;99894.63;;;15.70;100.00
60437;BME280;46289;51.992;4.498;2023-08-01T01:53:29;99890.16;;;15.82;100.00
60437;BME280;46289;51.992;4.498;2023-08-01T01:55:51;99895.22;;;15.85;100.00
60437;BME280;46289;51.992;4.498;2023-08-01T01:58:29;99889.81;;;15.86;100.00
60437;BME280;46289;51.992;4.498;2023-08-01T02:00:42;99896.44;;;15.92;100.00
60437;BME280;46289;51.992;4.498;2023-08-01T02:02:57;99891.13;;;15.92;100.00
60437;BME280;46289;51.992;4.498;2023-08-01T02:05:20;99897.41;;;15.91;100.00
60437;BME280;46289;51.992;4.498;2023-08-01T02:07:53;99882.47;;;15.90;100.00
60437;BME280;46289;51.992;4.498;2023-08-01T02:10:17;99894.53;;;15.94;100.00
60437;BME280;46289;51.992;4.498;2023-08-01T02:12:41;99889.94;;;15.96;100.00
60437;BME280;46289;51.992;4.498;2023-08-01T02:14:59;99886.44;;;15.84;100.00
60437;BME280;46289;51.992;4.498;2023-08-01T02:17:29;99885.75;;;15.93;100.00
60437;BME280;46289;51.992;4.498;2023-08-01T02:19:46;99884.28;;;15.89;100.00
60437;BME280;46289;51.992;4.498;2023-08-01T02:22:17;99881.75;;;15.88;100.00
60437;BME280;46289;51.992;4.498;2023-08-01T02:24:36;99886.56;;;15.94;100.00
60437;BME280;46289;51.992;4.498;2023-08-01T02:26:58;99884.75;;;15.94;100.00
60437;BME280;46289;51.992;4.498;2023-08-01T02:29:24;99872.09;;;15.87;100.00
60437;BME280;46289;51.992;4.498;2023-08-01T02:31:39;99875.72;;;15.86;100.00
60437;BME280;46289;51.992;4.498;2023-08-01T02:34:02;99867.88;;;15.84;100.00
60437;BME280;46289;51.992;4.498;2023-08-01T02:36:44;99877.06;;;15.91;100.00
60437;BME280;46289;51.992;4.498;2023-08-01T02:38:59;99875.34;;;15.90;100.00
60437;BME280;46289;51.992;4.498;2023-08-01T02:41:29;99889.31;;;15.92;100.00
60437;BME280;46289;51.992;4.498;2023-08-01T02:43:46;99883.19;;;15.92;100.00
60437;BME280;46289;51.992;4.498;2023-08-01T02:46:09;99886.09;;;15.89;100.00
60437;BME280;46289;51.992;4.498;2023-08-01T02:48:38;99876.91;;;15.82;100.00
60437;BME280;46289;51.992;4.498;2023-08-01T02:50:54;99889.22;;;15.83;100.00
60437;BME280;46289;51.992;4.498;2023-08-01T02:53:14;99887.75;;;15.78;100.00
60437;BME280;46289;51.992;4.498;2023-08-01T02:55:38;99886.78;;;15.79;100.00
60437;BME280;46289;51.992;4.498;2023-08-01T02:58:16;99888.50;;;15.80;100.00
60437;BME280;46289;51.992;4.498;2023-08-01T03:00:45;99884.75;;;15.72;100.00
60437;BME280;46289;51.992;4.498;2023-08-01T03:03:05;99893.78;;;15.80;100.00
60437;BME280;46289;51.992;4.498;2023-08-01T03:05:20;99884.63;;;15.85;100.00
60437;BME280;46289;51.992;4.498;2023-08-01T03:07:47;99887.41;;;15.83;100.00
60437;BME280;46289;51.992;4.498;2023-08-01T03:10:05;99880.78;;;15.77;100.00
60437;BME280;46289;51.992;4.498;2023-08-01T03:12:42;99889.69;;;15.76;100.00
60437;BME280;46289;51.992;4.498;2023-08-01T03:14:57;99888.84;;;15.76;100.00
60437;BME280;46289;51.992;4.498;2023-08-01T03:17:38;99901.59;;;15.71;100.00
60437;BME280;46289;51.992;4.498;2023-08-01T03:19:56;99890.75;;;15.74;100.00
60437;BME280;46289;51.992;4.498;2023-08-01T03:22:28;99892.56;;;15.73;100.00
60437;BME280;46289;51.992;4.498;2023-08-01T03:24:44;99898.09;;;15.70;100.00
60437;BME280;46289;51.992;4.498;2023-08-01T03:26:56;99894.47;;;15.71;100.00
60437;BME280;46289;51.992;4.498;2023-08-01T03:29:14;99903.16;;;15.73;100.00
60437;BME280;46289;51.992;4.498;2023-08-01T03:31:27;99899.53;;;15.74;100.00
60437;BME280;46289;51.992;4.498;2023-08-01T03:33:56;99907.03;;;15.69;100.00
60437;BME280;46289;51.992;4.498;2023-08-01T03:36:20;99906.00;;;15.59;100.00
60437;BME280;46289;51.992;4.498;2023-08-01T03:38:33;99896.72;;;15.53;100.00
60437;BME280;46289;51.992;4.498;2023-08-01T03:40:46;99907.09;;;15.56;100.00
60437;BME280;46289;51.992;4.498;2023-08-01T03:43:09;99906.94;;;15.58;100.00
60437;BME280;46289;51.992;4.498;2023-08-01T03:45:33;99904.53;;;15.55;100.00
60437;BME280;46289;51.992;4.498;2023-08-01T03:47:52;99910.66;;;15.55;100.00
60437;BME280;46289;51.992;4.498;2023-08-01T03:50:16;99909.84;;;15.55;100.00
60437;BME280;46289;51.992;4.498;2023-08-01T03:52:26;99906.69;;;15.50;100.00
60437;BME280;46289;51.992;4.498;2023-08-01T03:54:39;99914.06;;;15.57;100.00
60437;BME280;46289;51.992;4.498;2023-08-01T03:56:57;99907.75;;;15.47;100.00
60437;BME280;46289;51.992;4.498;2023-08-01T03:59:08;99913.19;;;15.46;100.00
60437;BME280;46289;51.992;4.498;2023-08-01T04:01:30;99915.38;;;15.52;100.00
60437;BME280;46289;51.992;4.498;2023-08-01T04:03:43;99910.22;;;15.62;100.00
60437;BME280;46289;51.992;4.498;2023-08-01T04:06:04;99906.34;;;15.54;100.00
60437;BME280;46289;51.992;4.498;2023-08-01T04:08:23;99901.16;;;15.53;100.00
60437;BME280;46289;51.992;4.498;2023-08-01T04:10:37;99905.75;;;15.51;100.00
60437;BME280;46289;51.992;4.498;2023-08-01T04:12:54;99911.50;;;15.56;100.00
60437;BME280;46289;51.992;4.498;2023-08-01T04:15:12;99910.44;;;15.58;100.00
60437;BME280;46289;51.992;4.498;2023-08-01T04:17:36;99908.16;;;15.54;100.00
60437;BME280;46289;51.992;4.498;2023-08-01T04:19:48;99901.16;;;15.53;100.00
60437;BME280;46289;51.992;4.498;2023-08-01T04:22:22;99906.59;;;15.51;100.00
60437;BME280;46289;51.992;4.498;2023-08-01T04:24:38;99904.28;;;15.47;100.00
60437;BME280;46289;51.992;4.498;2023-08-01T04:26:48;99906.09;;;15.46;100.00
60437;BME280;46289;51.992;4.498;2023-08-01T04:28:58;99907.16;;;15.44;100.00
60437;BME280;46289;51.992;4.498;2023-08-01T04:31:13;99893.78;;;15.45;100.00
60437;BME280;46289;51.992;4.498;2023-08-01T04:33:37;99897.41;;;15.44;100.00
60437;BME280;46289;51.992;4.498;2023-08-01T04:35:51;99896.56;;;15.44;100.00
60437;BME280;46289;51.992;4.498;2023-08-01T04:38:40;99897.50;;;15.43;100.00
60437;BME280;46289;51.992;4.498;2023-08-01T04:41:07;99916.53;;;15.48;100.00
60437;BME280;46289;51.992;4.498;2023-08-01T04:43:25;99903.94;;;15.51;100.00
60437;BME280;46289;51.992;4.498;2023-08-01T04:45:37;99903.94;;;15.51;100.00
60437;BME280;46289;51.992;4.498;2023-08-01T04:47:57;99907.19;;;15.55;100.00
60437;BME280;46289;51.992;4.498;2023-08-01T04:50:22;99912.72;;;15.52;100.00
60437;BME280;46289;51.992;4.498;2023-08-01T04:52:37;99916.09;;;15.54;100.00
60437;BME280;46289;51.992;4.498;2023-08-01T04:54:53;99909.84;;;15.55;100.00
60437;BME280;46289;51.992;4.498;2023-08-01T04:57:11;99913.22;;;15.57;100.00
60437;BME280;46289;51.992;4.498;2023-08-01T04:59:30;99907.91;;;15.57;100.00
60437;BME280;46289;51.992;4.498;2023-08-01T05:01:49;99902.88;;;15.54;100.00
60437;BME280;46289;51.992;4.498;2023-08-01T05:04:26;99921.91;;;15.59;100.00
60437;BME280;46289;51.992;4.498;2023-08-01T05:07:06;99923.47;;;15.62;100.00
60437;BME280;46289;51.992;4.498;2023-08-01T05:09:24;99919.00;;;15.62;100.00
60437;BME280;46289;51.992;4.498;2023-08-01T05:11:59;99917.91;;;15.53;100.00
60437;BME280;46289;51.992;4.498;2023-08-01T05:14:15;99907.91;;;15.46;100.00
60437;BME280;46289;51.992;4.498;2023-08-01T05:16:33;99909.34;;;15.50;100.00
60437;BME280;46289;51.992;4.498;2023-08-01T05:18:47;99918.25;;;15.49;100.00
60437;BME280;46289;51.992;4.498;2023-08-01T05:21:05;99897.66;;;15.41;100.00
60437;BME280;46289;51.992;4.498;2023-08-01T05:23:21;99912.22;;;15.47;100.00
60437;BME280;46289;51.992;4.498;2023-08-01T05:25:36;99911.50;;;15.45;100.00
60437;BME280;46289;51.992;4.498;2023-08-01T05:28:02;99916.41;;;15.38;100.00
60437;BME280;46289;51.992;4.498;2023-08-01T05:30:10;99913.53;;;15.41;100.00
60437;BME280;46289;51.992;4.498;2023-08-01T05:32:28;99914.78;;;15.48;100.00
60437;BME280;46289;51.992;4.498;2023-08-01T05:35:07;99924.50;;;15.48;100.00
60437;BME280;46289;51.992;4.498;2023-08-01T05:37:19;99914.28;;;15.54;100.00
60437;BME280;46289;51.992;4.498;2023-08-01T05:40:02;99915.28;;;15.65;100.00
60437;BME280;46289;51.992;4.498;2023-08-01T05:42:20;99917.88;;;15.77;100.00
60437;BME280;46289;51.992;4.498;2023-08-01T05:44:38;99929.22;;;15.91;100.00
60437;BME280;46289;51.992;4.498;2023-08-01T05:47:11;99932.34;;;15.96;100.00
60437;BME280;46289;51.992;4.498;2023-08-01T05:49:33;99928.47;;;15.89;100.00
60437;BME280;46289;51.992;4.498;2023-08-01T05:54:32;99922.69;;;15.95;100.00
60437;BME280;46289;51.992;4.498;2023-08-01T05:57:12;99931.50;;;16.52;99.99
60437;BME280;46289;51.992;4.498;2023-08-01T05:59:33;99941.84;;;16.88;99.27
60437;BME280;46289;51.992;4.498;2023-08-01T06:01:54;99935.06;;;16.73;96.54
60437;BME280;46289;51.992;4.498;2023-08-01T06:04:29;99932.09;;;16.78;98.38
60437;BME280;46289;51.992;4.498;2023-08-01T06:06:43;99940.00;;;16.66;98.47
60437;BME280;46289;51.992;4.498;2023-08-01T06:09:14;99930.66;;;17.06;96.32
60437;BME280;46289;51.992;4.498;2023-08-01T06:11:37;99928.78;;;16.97;94.06
60437;BME280;46289;51.992;4.498;2023-08-01T06:14:06;99947.47;;;17.06;95.92
60437;BME280;46289;51.992;4.498;2023-08-01T06:16:41;99933.50;;;16.71;94.42
60437;BME280;46289;51.992;4.498;2023-08-01T06:19:08;99944.41;;;16.56;95.17
60437;BME280;46289;51.992;4.498;2023-08-01T06:21:54;99944.38;;;17.22;92.93
60437;BME280;46289;51.992;4.498;2023-08-01T06:24:26;99926.91;;;17.20;92.70
60437;BME280;46289;51.992;4.498;2023-08-01T06:26:38;99954.84;;;17.24;92.96
60437;BME280;46289;51.992;4.498;2023-08-01T06:29:05;99944.50;;;17.21;92.79
60437;BME280;46289;51.992;4.498;2023-08-01T06:34:27;99944.28;;;17.13;93.25
60437;BME280;46289;51.992;4.498;2023-08-01T06:36:42;99947.59;;;16.94;94.80
60437;BME280;46289;51.992;4.498;2023-08-01T06:39:10;99945.94;;;16.81;96.45
60437;BME280;46289;51.992;4.498;2023-08-01T06:41:46;99962.81;;;16.69;97.00
60437;BME280;46289;51.992;4.498;2023-08-01T06:44:34;99967.75;;;16.74;97.61
60437;BME280;46289;51.992;4.498;2023-08-01T06:46:59;99968.97;;;16.70;98.82
60437;BME280;46289;51.992;4.498;2023-08-01T06:49:37;99957.72;;;17.32;96.21
60437;BME280;46289;51.992;4.498;2023-08-01T06:52:05;99969.91;;;17.34;95.46
60437;BME280;46289;51.992;4.498;2023-08-01T06:54:42;99958.94;;;17.60;93.33
60437;BME280;46289;51.992;4.498;2023-08-01T06:57:01;99962.44;;;18.03;91.28
60437;BME280;46289;51.992;4.498;2023-08-01T06:59:43;99966.22;;;17.79;90.27
60437;BME280;46289;51.992;4.498;2023-08-01T07:02:08;99976.56;;;18.03;88.30
60437;BME280;46289;51.992;4.498;2023-08-01T07:04:47;99971.66;;;18.29;88.31
60437;BME280;46289;51.992;4.498;2023-08-01T07:07:01;99984.75;;;18.42;86.81
60437;BME280;46289;51.992;4.498;2023-08-01T07:09:32;99981.28;;;17.78;88.20
60437;BME280;46289;51.992;4.498;2023-08-01T07:11:48;99981.84;;;17.61;88.10
60437;BME280;46289;51.992;4.498;2023-08-01T07:14:17;99979.50;;;18.00;88.15
60437;BME280;46289;51.992;4.498;2023-08-01T07:16:31;99975.13;;;18.51;85.15
60437;BME280;46289;51.992;4.498;2023-08-01T07:18:41;99974.72;;;18.55;84.63
60437;BME280;46289;51.992;4.498;2023-08-01T07:21:12;99982.81;;;18.75;83.39
60437;BME280;46289;51.992;4.498;2023-08-01T07:23:26;99983.03;;;19.12;82.38
60437;BME280;46289;51.992;4.498;2023-08-01T07:25:44;99981.41;;;18.19;82.12
60437;BME280;46289;51.992;4.498;2023-08-01T07:27:57;99993.16;;;18.16;82.59
60437;BME280;46289;51.992;4.498;2023-08-01T07:30:20;99988.31;;;18.93;81.93
60437;BME280;46289;51.992;4.498;2023-08-01T07:32:35;99991.19;;;18.39;82.01
60437;BME280;46289;51.992;4.498;2023-08-01T07:34:48;99989.69;;;17.95;82.34
60437;BME280;46289;51.992;4.498;2023-08-01T07:37:09;99986.78;;;18.59;79.62
60437;BME280;46289;51.992;4.498;2023-08-01T07:39:27;99982.34;;;18.08;82.08
60437;BME280;46289;51.992;4.498;2023-08-01T07:41:38;100006.41;;;18.07;82.42
60437;BME280;46289;51.992;4.498;2023-08-01T07:43:46;100000.50;;;18.95;80.40
60437;BME280;46289;51.992;4.498;2023-08-01T07:46:27;99983.88;;;19.61;78.57
60437;BME280;46289;51.992;4.498;2023-08-01T07:48:57;99985.56;;;19.82;76.66
60437;BME280;46289;51.992;4.498;2023-08-01T07:51:39;100009.53;;;19.43;77.10
60437;BME280;46289;51.992;4.498;2023-08-01T07:54:04;99997.00;;;18.95;77.74
60437;BME280;46289;51.992;4.498;2023-08-01T07:56:26;99995.22;;;18.74;79.76
60437;BME280;46289;51.992;4.498;2023-08-01T07:58:59;100005.81;;;18.85;78.89
60437;BME280;46289;51.992;4.498;2023-08-01T08:01:21;99999.44;;;18.67;77.96
60437;BME280;46289;51.992;4.498;2023-08-01T08:03:47;99994.19;;;18.86;77.39
60437;BME280;46289;51.992;4.498;2023-08-01T08:06:20;100014.06;;;19.71;77.21
60437;BME280;46289;51.992;4.498;2023-08-01T08:08:56;100020.06;;;19.44;77.86
60437;BME280;46289;51.992;4.498;2023-08-01T08:11:17;100017.06;;;18.99;76.90
60437;BME280;46289;51.992;4.498;2023-08-01T08:14:10;100022.50;;;18.57;77.76
60437;BME280;46289;51.992;4.498;2023-08-01T08:16:25;100006.97;;;18.72;77.12
60437;BME280;46289;51.992;4.498;2023-08-01T08:18:40;100014.63;;;18.55;77.68
60437;BME280;46289;51.992;4.498;2023-08-01T08:20:56;100017.78;;;18.39;80.97
60437;BME280;46289;51.992;4.498;2023-08-01T08:23:25;100018.28;;;18.54;78.04
60437;BME280;46289;51.992;4.498;2023-08-01T08:25:47;100021.25;;;18.61;78.33
60437;BME280;46289;51.992;4.498;2023-08-01T08:28:13;100033.28;;;18.34;78.67
60437;BME280;46289;51.992;4.498;2023-08-01T08:30:37;100020.09;;;18.02;80.09
60437;BME280;46289;51.992;4.498;2023-08-01T08:33:05;100034.38;;;18.22;80.92
60437;BME280;46289;51.992;4.498;2023-08-01T08:35:42;100030.63;;;18.04;79.86
60437;BME280;46289;51.992;4.498;2023-08-01T08:37:58;100020.66;;;17.85;78.54
60437;BME280;46289;51.992;4.498;2023-08-01T08:40:22;100038.28;;;18.49;78.76
60437;BME280;46289;51.992;4.498;2023-08-01T08:42:53;100032.88;;;18.91;75.90
60437;BME280;46289;51.992;4.498;2023-08-01T08:45:25;100043.25;;;19.73;74.55
60437;BME280;46289;51.992;4.498;2023-08-01T08:47:41;100027.94;;;19.56;75.35
60437;BME280;46289;51.992;4.498;2023-08-01T08:49:59;100031.88;;;19.51;73.21
60437;BME280;46289;51.992;4.498;2023-08-01T08:52:33;100034.38;;;20.11;72.80
60437;BME280;46289;51.992;4.498;2023-08-01T08:54:59;100033.56;;;19.72;71.81
60437;BME280;46289;51.992;4.498;2023-08-01T08:57:16;100024.56;;;20.12;71.06
60437;BME280;46289;51.992;4.498;2023-08-01T08:59:30;100041.16;;;19.96;70.53
60437;BME280;46289;51.992;4.498;2023-08-01T09:01:51;100042.44;;;19.72;72.41
60437;BME280;46289;51.992;4.498;2023-08-01T09:04:11;100028.69;;;18.98;73.16
60437;BME280;46289;51.992;4.498;2023-08-01T09:06:36;100038.13;;;19.21;73.67
60437;BME280;46289;51.992;4.498;2023-08-01T09:09:01;100035.44;;;19.02;72.62
60437;BME280;46289;51.992;4.498;2023-08-01T09:11:47;100039.91;;;20.47;70.14
60437;BME280;46289;51.992;4.498;2023-08-01T09:14:00;100034.91;;;20.72;67.95
60437;BME280;46289;51.992;4.498;2023-08-01T09:16:17;100045.84;;;20.41;66.02
60437;BME280;46289;51.992;4.498;2023-08-01T09:18:56;100052.88;;;19.45;69.63
60437;BME280;46289;51.992;4.498;2023-08-01T09:21:08;100035.38;;;20.01;69.02
60437;BME280;46289;51.992;4.498;2023-08-01T09:23:34;100037.31;;;20.75;67.51
60437;BME280;46289;51.992;4.498;2023-08-01T09:25:44;100047.09;;;20.84;66.37
60437;BME280;46289;51.992;4.498;2023-08-01T09:28:04;100047.59;;;20.97;67.00
60437;BME280;46289;51.992;4.498;2023-08-01T09:30:47;100052.84;;;20.89;67.89
60437;BME280;46289;51.992;4.498;2023-08-01T09:33:08;100047.75;;;20.58;67.06
60437;BME280;46289;51.992;4.498;2023-08-01T09:35:38;100052.38;;;21.49;66.80
60437;BME280;46289;51.992;4.498;2023-08-01T09:38:05;100053.69;;;22.51;64.42
60437;BME280;46289;51.992;4.498;2023-08-01T09:40:24;100047.09;;;22.37;61.14
60437;BME280;46289;51.992;4.498;2023-08-01T09:43:00;100061.53;;;22.44;60.96
60437;BME280;46289;51.992;4.498;2023-08-01T09:45:31;100067.69;;;22.01;60.44
60437;BME280;46289;51.992;4.498;2023-08-01T09:47:53;100060.41;;;22.29;62.19
60437;BME280;46289;51.992;4.498;2023-08-01T09:50:12;100066.03;;;22.00;62.25
60437;BME280;46289;51.992;4.498;2023-08-01T09:52:51;100062.13;;;21.13;61.95
60437;BME280;46289;51.992;4.498;2023-08-01T09:55:13;100069.00;;;20.88;63.98
60437;BME280;46289;51.992;4.498;2023-08-01T09:57:41;100060.22;;;21.86;63.67
60437;BME280;46289;51.992;4.498;2023-08-01T09:59:59;100070.44;;;20.82;63.44
60437;BME280;46289;51.992;4.498;2023-08-01T10:02:20;100076.88;;;20.89;63.33
60437;BME280;46289;51.992;4.498;2023-08-01T10:04:38;100078.28;;;21.48;63.46
60437;BME280;46289;51.992;4.498;2023-08-01T10:19:55;100069.25;;;22.47;59.83
60437;BME280;46289;51.992;4.498;2023-08-01T10:22:38;100075.53;;;21.03;62.84
60437;BME280;46289;51.992;4.498;2023-08-01T10:25:41;100083.91;;;20.24;63.78
60437;BME280;46289;51.992;4.498;2023-08-01T10:29:27;100088.56;;;21.43;62.76
60437;BME280;46289;51.992;4.498;2023-08-01T10:32:27;100079.94;;;21.22;62.37
60437;BME280;46289;51.992;4.498;2023-08-01T10:53:59;100100.63;;;20.06;66.48
60437;BME280;46289;51.992;4.498;2023-08-01T10:56:48;100111.59;;;19.24;68.32
60437;BME280;46289;51.992;4.498;2023-08-01T10:59:49;100119.88;;;19.71;69.68
60437;BME280;46289;51.992;4.498;2023-08-01T11:02:48;100120.72;;;19.81;68.17
60437;BME280;46289;51.992;4.498;2023-08-01T11:12:26;100137.38;;;21.08;63.96
60437;BME280;46289;51.992;4.498;2023-08-01T11:15:30;100125.25;;;20.86;64.12
60437;BME280;46289;51.992;4.498;2023-08-01T11:18:25;100137.28;;;21.83;61.09
60437;BME280;46289;51.992;4.498;2023-08-01T11:21:09;100151.84;;;20.68;64.21
60437;BME280;46289;51.992;4.498;2023-08-01T11:23:40;100146.97;;;20.05;63.41
60437;BME280;46289;51.992;4.498;2023-08-01T11:26:13;100148.09;;;20.03;64.25
60437;BME280;46289;51.992;4.498;2023-08-01T11:29:01;100142.59;;;19.85;63.83
60437;BME280;46289;51.992;4.498;2023-08-01T11:31:57;100151.44;;;19.95;63.51
60437;BME280;46289;51.992;4.498;2023-08-01T11:34:51;100151.19;;;20.08;63.80
60437;BME280;46289;51.992;4.498;2023-08-01T11:37:18;100141.94;;;20.12;64.73
60437;BME280;46289;51.992;4.498;2023-08-01T11:40:22;100153.69;;;19.70;64.93
60437;BME280;46289;51.992;4.498;2023-08-01T11:42:57;100147.72;;;19.17;65.60
60437;BME280;46289;51.992;4.498;2023-08-01T11:51:51;100147.22;;;20.60;61.35
60437;BME280;46289;51.992;4.498;2023-08-01T11:54:21;100145.78;;;20.86;61.71
60437;BME280;46289;51.992;4.498;2023-08-01T11:56:37;100138.25;;;20.42;62.92
60437;BME280;46289;51.992;4.498;2023-08-01T11:59:12;100146.50;;;20.68;62.33
60437;BME280;46289;51.992;4.498;2023-08-01T12:01:44;100151.16;;;20.47;63.08
60437;BME280;46289;51.992;4.498;2023-08-01T12:03:56;100165.25;;;20.20;65.36
60437;BME280;46289;51.992;4.498;2023-08-01T12:06:08;100165.63;;;19.86;68.55
60437;BME280;46289;51.992;4.498;2023-08-01T12:08:35;100160.28;;;19.95;68.50
60437;BME280;46289;51.992;4.498;2023-08-01T12:10:51;100160.75;;;20.20;64.67
60437;BME280;46289;51.992;4.498;2023-08-01T12:13:18;100162.81;;;20.75;62.62
60437;BME280;46289;51.992;4.498;2023-08-01T12:15:29;100157.50;;;21.40;61.20
60437;BME280;46289;51.992;4.498;2023-08-01T12:17:43;100156.53;;;21.86;59.64
60437;BME280;46289;51.992;4.498;2023-08-01T12:20:10;100171.38;;;21.99;59.22
60437;BME280;46289;51.992;4.498;2023-08-01T12:22:42;100165.28;;;21.61;59.79
60437;BME280;46289;51.992;4.498;2023-08-01T12:25:19;100177.44;;;22.19;59.97
60437;BME280;46289;51.992;4.498;2023-08-01T12:27:28;100165.63;;;22.47;58.73
60437;BME280;46289;51.992;4.498;2023-08-01T12:29:38;100172.44;;;22.06;59.45
60437;BME280;46289;51.992;4.498;2023-08-01T12:31:54;100173.31;;;20.86;59.75
60437;BME280;46289;51.992;4.498;2023-08-01T12:34:03;100168.53;;;20.80;61.26
60437;BME280;46289;51.992;4.498;2023-08-01T12:36:16;100174.22;;;21.52;61.18
60437;BME280;46289;51.992;4.498;2023-08-01T12:38:37;100177.16;;;22.48;60.41
60437;BME280;46289;51.992;4.498;2023-08-01T12:40:51;100176.22;;;21.40;60.40
60437;BME280;46289;51.992;4.498;2023-08-01T12:43:14;100169.75;;;21.42;60.69
60437;BME280;46289;51.992;4.498;2023-08-01T12:45:25;100175.63;;;21.91;61.76
60437;BME280;46289;51.992;4.498;2023-08-01T12:48:06;100165.31;;;22.50;60.04
60437;BME280;46289;51.992;4.498;2023-08-01T12:50:24;100168.44;;;22.20;58.72
60437;BME280;46289;51.992;4.498;2023-08-01T12:52:38;100176.53;;;21.82;59.48
60437;BME280;46289;51.992;4.498;2023-08-01T12:54:54;100170.53;;;21.53;60.64
60437;BME280;46289;51.992;4.498;2023-08-01T12:57:14;100180.63;;;21.59;61.13
60437;BME280;46289;51.992;4.498;2023-08-01T12:59:36;100184.25;;;21.67;61.00
60437;BME280;46289;51.992;4.498;2023-08-01T13:01:52;100183.41;;;21.39;60.12
60437;BME280;46289;51.992;4.498;2023-08-01T13:04:17;100180.16;;;20.98;60.68
60437;BME280;46289;51.992;4.498;2023-08-01T13:06:37;100189.75;;;21.38;61.68
60437;BME280;46289;51.992;4.498;2023-08-01T13:08:57;100185.97;;;21.59;61.35
60437;BME280;46289;51.992;4.498;2023-08-01T13:11:22;100178.16;;;21.75;59.77
60437;BME280;46289;51.992;4.498;2023-08-01T13:13:54;100196.47;;;21.42;61.08
60437;BME280;46289;51.992;4.498;2023-08-01T13:16:12;100196.63;;;20.94;61.85
60437;BME280;46289;51.992;4.498;2023-08-01T13:18:35;100193.13;;;20.93;62.36
60437;BME280;46289;51.992;4.498;2023-08-01T13:21:03;100195.81;;;20.74;63.16
60437;BME280;46289;51.992;4.498;2023-08-01T13:23:29;100190.69;;;21.10;62.87
60437;BME280;46289;51.992;4.498;2023-08-01T13:25:56;100190.00;;;21.73;61.64
60437;BME280;46289;51.992;4.498;2023-08-01T13:28:16;100195.56;;;21.79;60.85
60437;BME280;46289;51.992;4.498;2023-08-01T13:30:31;100209.84;;;21.33;60.99